Time;durP1;ratioP1;P1;durP2;ratioP2;P2;SDS_P1;SDS_P2;PMS_P1;PMS_P2;Temp;Humidity;BMP_temperature;BMP_pressure;BME280_temperature;BME280_humidity;BME280_pressure;Samples;Min_cycle;Max_cycle;Signal;HPM_P1;HPM_P2
2022/05/26 00:02:20;;;;;;;1.85;0.43;;;19.10;43.40;;;;;;4946168;28;20070;-45
2022/05/26 00:04:48;;;;;;;3.28;1.23;;;19.10;43.50;;;;;;4945846;29;20055;-45
2022/05/26 00:07:16;;;;;;;1.33;0.47;;;19.10;43.70;;;;;;4943766;28;20062;-45
2022/05/26 00:09:44;;;;;;;1.08;0.40;;;19.10;43.80;;;;;;4947288;28;20077;-48
2022/05/26 00:12:12;;;;;;;0.70;0.30;;;19.00;43.70;;;;;;4947158;28;20062;-46
2022/05/26 00:14:40;;;;;;;2.40;0.40;;;19.00;43.80;;;;;;4946936;29;20058;-45
2022/05/26 00:17:08;;;;;;;2.55;0.80;;;19.00;43.90;;;;;;4942863;28;20051;-50
2022/05/26 00:19:37;;;;;;;2.88;0.63;;;19.00;43.90;;;;;;4945057;28;20047;-46
2022/05/26 00:22:05;;;;;;;1.77;0.50;;;19.00;44.00;;;;;;4946691;28;20062;-46
2022/05/26 00:24:33;;;;;;;2.28;0.47;;;19.00;44.00;;;;;;4946889;28;20518;-47
2022/05/26 00:27:01;;;;;;;1.30;0.45;;;19.00;44.10;;;;;;4943678;28;20051;-45
2022/05/26 00:29:28;;;;;;;3.10;1.02;;;19.00;44.10;;;;;;4946376;29;20055;-45
2022/05/26 00:31:56;;;;;;;2.50;0.60;;;19.00;44.20;;;;;;4943737;28;20054;-47
2022/05/26 00:34:23;;;;;;;4.40;0.73;;;19.00;44.20;;;;;;4945842;28;20055;-45
2022/05/26 00:36:52;;;;;;;5.55;0.57;;;19.00;44.30;;;;;;4944154;28;20055;-48
2022/05/26 00:39:22;;;;;;;3.70;0.50;;;19.00;44.50;;;;;;4946274;28;20052;-44
2022/05/26 00:41:54;;;;;;;1.77;0.73;;;19.00;44.50;;;;;;4943507;28;20043;-48
2022/05/26 00:44:22;;;;;;;3.92;0.70;;;18.90;44.80;;;;;;4946024;28;20507;-47
2022/05/26 00:46:55;;;;;;;1.73;0.50;;;18.90;44.70;;;;;;4945995;28;20411;-45
2022/05/26 00:49:26;;;;;;;2.22;0.52;;;18.90;44.80;;;;;;4943043;28;20051;-47
2022/05/26 00:51:57;;;;;;;1.92;0.50;;;18.90;44.90;;;;;;4943726;28;20518;-45
2022/05/26 00:54:27;;;;;;;2.10;0.40;;;18.90;45.00;;;;;;4943843;28;20066;-44
2022/05/26 00:57:00;;;;;;;3.83;0.55;;;18.90;45.10;;;;;;4943102;28;20429;-45
2022/05/26 00:59:36;;;;;;;2.45;0.40;;;18.90;45.40;;;;;;4946179;29;20066;-45
2022/05/26 01:02:04;;;;;;;1.70;0.40;;;18.90;45.40;;;;;;4945835;28;20059;-48
2022/05/26 01:04:36;;;;;;;1.08;0.32;;;18.80;45.50;;;;;;4942002;28;20055;-48
2022/05/26 01:07:12;;;;;;;1.48;0.43;;;18.80;45.70;;;;;;4943831;28;20067;-48
2022/05/26 01:09:40;;;;;;;1.38;0.50;;;18.80;45.90;;;;;;4944929;29;20051;-45
2022/05/26 01:12:08;;;;;;;5.22;0.65;;;18.80;45.90;;;;;;4946656;28;20059;-46
2022/05/26 01:14:41;;;;;;;2.22;0.52;;;18.80;46.00;;;;;;4940396;28;20444;-48
2022/05/26 01:17:18;;;;;;;0.75;0.40;;;18.70;46.10;;;;;;4957267;28;20066;-46
2022/05/26 01:20:21;;;;;;;2.10;0.40;;;18.70;46.20;;;;;;4944902;28;20408;-45
2022/05/26 01:23:18;;;;;;;1.92;0.40;;;18.70;46.40;;;;;;4942589;28;20067;-45
2022/05/26 01:26:15;;;;;;;1.02;0.43;;;18.70;46.40;;;;;;4944937;28;20063;-45
2022/05/26 01:29:18;;;;;;;1.33;0.65;;;18.70;46.50;;;;;;4942868;28;20055;-46
2022/05/26 01:31:54;;;;;;;0.93;0.60;;;18.70;46.60;;;;;;4935593;28;20051;-46
2022/05/26 01:34:31;;;;;;;2.55;0.43;;;18.60;46.60;;;;;;4942998;28;20055;-47
2022/05/26 01:37:07;;;;;;;2.13;0.55;;;18.60;46.60;;;;;;4942216;28;20059;-45
2022/05/26 01:39:42;;;;;;;0.20;0.20;;;18.60;46.70;;;;;;4939547;28;20051;-45
2022/05/26 01:42:20;;;;;;;2.17;0.30;;;18.60;46.70;;;;;;4942459;28;20055;-49
2022/05/26 01:44:54;;;;;;;2.10;0.45;;;18.60;46.80;;;;;;4942098;29;20062;-45
2022/05/26 01:47:39;;;;;;;3.78;0.50;;;18.60;46.90;;;;;;4942628;28;20063;-47
2022/05/26 01:50:15;;;;;;;0.75;0.20;;;18.50;47.00;;;;;;4943705;28;20066;-45
2022/05/26 01:52:47;;;;;;;0.93;0.38;;;18.50;47.00;;;;;;4942704;28;20063;-45
2022/05/26 01:55:19;;;;;;;2.63;0.20;;;18.50;47.10;;;;;;4943988;28;20059;-45
2022/05/26 01:57:52;;;;;;;2.28;0.50;;;18.50;47.20;;;;;;4941542;28;20443;-46
2022/05/26 02:00:21;;;;;;;3.55;0.40;;;18.50;47.30;;;;;;4943462;28;20051;-45
2022/05/26 02:02:55;;;;;;;0.65;0.22;;;18.40;47.30;;;;;;4944635;28;21135;-46
2022/05/26 02:05:24;;;;;;;;;;;18.40;47.50;;;;;;4943707;28;20051;-47
2022/05/26 02:07:56;;;;;;;1.48;0.60;;;18.50;47.30;;;;;;4941589;28;19945;-48
2022/05/26 02:10:29;;;;;;;1.10;0.20;;;18.40;47.30;;;;;;4942494;28;20059;-45
2022/05/26 02:13:02;;;;;;;1.75;0.30;;;18.40;47.50;;;;;;4944222;28;20047;-50
2022/05/26 02:15:34;;;;;;;0.63;0.30;;;18.40;47.60;;;;;;4942355;28;20487;-45
2022/05/26 02:18:09;;;;;;;1.73;0.38;;;18.30;47.60;;;;;;4939631;28;20416;-48
2022/05/26 02:20:38;;;;;;;;;;;18.30;47.70;;;;;;4943287;28;20483;-48
2022/05/26 02:23:13;;;;;;;2.85;0.68;;;18.30;47.50;;;;;;4944097;28;19926;-45
2022/05/26 02:25:40;;;;;;;0.40;0.38;;;18.30;47.70;;;;;;4943738;28;20051;-45
2022/05/26 02:28:10;;;;;;;3.92;0.52;;;18.30;47.90;;;;;;4941372;28;20055;-49
2022/05/26 02:30:39;;;;;;;1.77;0.70;;;18.20;47.90;;;;;;4942780;28;20051;-47
2022/05/26 02:33:11;;;;;;;1.88;0.55;;;18.20;48.10;;;;;;4943753;28;20051;-47
2022/05/26 02:35:41;;;;;;;2.88;0.50;;;18.20;48.20;;;;;;4943126;28;20054;-45
2022/05/26 02:38:13;;;;;;;0.28;0.20;;;18.20;48.30;;;;;;4941381;28;20066;-45
2022/05/26 02:40:41;;;;;;;2.33;0.32;;;18.10;48.40;;;;;;4944270;28;20136;-48
2022/05/26 02:43:12;;;;;;;0.75;0.30;;;18.10;48.50;;;;;;4942409;28;20055;-47
2022/05/26 02:45:56;;;;;;;3.70;0.50;;;18.10;48.60;;;;;;4943617;29;20055;-46
2022/05/26 02:48:41;;;;;;;0.37;0.30;;;18.10;48.80;;;;;;4941378;28;20054;-46
2022/05/26 02:51:16;;;;;;;1.30;0.40;;;18.10;48.80;;;;;;4942390;28;20051;-45
2022/05/26 02:53:50;;;;;;;3.25;0.60;;;18.10;48.90;;;;;;4944297;28;20063;-45
2022/05/26 02:56:31;;;;;;;1.38;0.32;;;18.10;48.80;;;;;;4942251;28;20054;-46
2022/05/26 02:59:11;;;;;;;0.68;0.38;;;18.10;49.00;;;;;;4939576;28;20061;-45
2022/05/26 03:01:45;;;;;;;1.75;0.50;;;18.10;49.10;;;;;;4943420;29;20074;-45
2022/05/26 03:04:19;;;;;;;1.77;0.40;;;18.10;49.00;;;;;;4942113;28;20071;-46
2022/05/26 03:06:49;;;;;;;;;;;18.10;49.20;;;;;;4943561;28;20055;-45
2022/05/26 03:09:17;;;;;;;0.75;0.30;;;18.10;48.90;;;;;;4940381;28;19930;-47
2022/05/26 03:11:48;;;;;;;1.65;0.32;;;18.10;49.00;;;;;;4940454;28;20496;-45
2022/05/26 03:14:15;;;;;;;1.52;0.32;;;18.10;49.10;;;;;;4944073;28;20054;-49
2022/05/26 03:16:43;;;;;;;0.63;0.22;;;18.10;49.20;;;;;;4941039;28;20051;-47
2022/05/26 03:19:11;;;;;;;1.02;0.40;;;18.00;49.30;;;;;;4940099;28;20055;-46
2022/05/26 03:21:40;;;;;;;0.70;0.17;;;18.10;49.30;;;;;;4942406;29;20062;-45
2022/05/26 03:24:09;;;;;;;1.85;0.85;;;18.10;49.30;;;;;;4943508;28;20059;-50
2022/05/26 03:26:37;;;;;;;0.57;0.20;;;18.10;49.50;;;;;;4943634;28;20055;-47
2022/05/26 03:29:06;;;;;;;0.77;0.35;;;18.10;49.50;;;;;;4939400;28;20051;-47
2022/05/26 03:31:34;;;;;;;1.23;0.30;;;18.10;49.50;;;;;;4943037;28;20063;-49
2022/05/26 03:42:18;;;;;;;1.25;0.47;;;18.00;49.70;;;;;;4948003;28;20511;-46
2022/05/26 03:44:46;;;;;;;0.95;0.40;;;18.00;49.80;;;;;;4943028;28;20282;-46
2022/05/26 03:47:14;;;;;;;0.82;0.40;;;18.00;50.00;;;;;;4940367;28;20063;-46
2022/05/26 03:49:42;;;;;;;4.32;0.95;;;18.00;50.10;;;;;;4942393;28;20062;-47
2022/05/26 03:52:11;;;;;;;2.67;0.60;;;18.00;50.10;;;;;;4941802;28;20062;-45
2022/05/26 03:54:38;;;;;;;1.13;0.50;;;18.00;50.10;;;;;;4943241;29;20491;-45
2022/05/26 03:57:06;;;;;;;2.55;0.52;;;18.00;50.20;;;;;;4939394;28;20047;-45
2022/05/26 03:59:34;;;;;;;2.60;0.90;;;18.00;50.20;;;;;;4942106;28;20051;-46
2022/05/26 04:02:02;;;;;;;2.10;0.60;;;18.00;50.30;;;;;;4941909;28;20058;-45
2022/05/26 04:04:29;;;;;;;1.70;0.70;;;18.00;50.40;;;;;;4939024;28;20062;-51
2022/05/26 04:06:57;;;;;;;3.90;0.95;;;18.00;50.40;;;;;;4941594;28;20385;-45
2022/05/26 04:09:26;;;;;;;1.48;0.47;;;18.00;50.50;;;;;;4941462;28;20056;-46
2022/05/26 04:11:54;;;;;;;2.88;0.70;;;18.00;50.60;;;;;;4941964;29;20086;-46
2022/05/26 04:14:21;;;;;;;1.08;0.50;;;18.00;50.60;;;;;;4942981;28;20511;-48
2022/05/26 04:16:49;;;;;;;1.00;0.60;;;18.00;50.70;;;;;;4934530;28;20089;-51
2022/05/26 04:19:16;;;;;;;2.53;0.80;;;17.90;50.60;;;;;;4933732;28;20062;-46
2022/05/26 04:24:26;;;;;;;2.25;0.70;;;17.90;50.70;;;;;;4942362;28;20039;-46
2022/05/26 04:26:54;;;;;;;1.80;0.63;;;18.00;50.70;;;;;;4939047;28;20060;-48
2022/05/26 04:29:23;;;;;;;1.67;0.70;;;18.00;50.80;;;;;;4942585;28;20067;-45
2022/05/26 04:31:51;;;;;;;1.40;0.60;;;17.90;50.80;;;;;;4940350;29;20422;-45
2022/05/26 04:34:19;;;;;;;2.90;0.60;;;18.00;51.00;;;;;;4939286;28;21449;-45
2022/05/26 04:36:47;;;;;;;2.70;0.65;;;18.00;51.00;;;;;;4933458;28;20062;-49
2022/05/26 04:39:16;;;;;;;2.10;0.60;;;18.00;51.00;;;;;;4939795;28;20055;-45
2022/05/26 04:41:46;;;;;;;1.40;0.60;;;18.00;51.10;;;;;;4945889;28;20055;-45
2022/05/26 04:44:17;;;;;;;2.28;0.60;;;18.00;51.10;;;;;;4945083;29;20070;-49
2022/05/26 04:46:45;;;;;;;3.00;0.70;;;18.00;51.10;;;;;;4944464;28;20057;-45
2022/05/26 04:49:12;;;;;;;2.22;0.70;;;18.00;51.10;;;;;;4943762;28;20056;-47
2022/05/26 04:51:40;;;;;;;3.78;0.57;;;18.00;51.20;;;;;;4943800;28;20062;-48
2022/05/26 04:54:11;;;;;;;4.05;0.65;;;18.00;51.30;;;;;;4941652;28;20055;-46
2022/05/26 04:56:43;;;;;;;2.63;0.90;;;18.00;51.30;;;;;;4946310;28;20063;-46
2022/05/26 04:59:13;;;;;;;7.25;1.33;;;18.10;51.30;;;;;;4946625;28;20059;-46
2022/05/26 05:01:41;;;;;;;3.83;1.23;;;18.10;51.30;;;;;;4946716;28;20047;-45
2022/05/26 05:04:09;;;;;;;2.80;0.95;;;18.10;51.30;;;;;;4944659;28;20070;-48
2022/05/26 05:06:36;;;;;;;4.47;1.13;;;18.00;51.20;;;;;;4944036;28;20507;-45
2022/05/26 05:09:04;;;;;;;2.97;1.00;;;18.10;51.20;;;;;;4942333;28;20055;-47
2022/05/26 05:11:32;;;;;;;2.30;1.23;;;18.10;51.20;;;;;;4946851;28;20121;-45
2022/05/26 05:14:03;;;;;;;2.70;1.30;;;18.10;51.20;;;;;;4946519;28;20062;-45
2022/05/26 05:16:35;;;;;;;4.55;1.60;;;18.10;51.40;;;;;;4944821;28;20078;-45
2022/05/26 05:19:02;;;;;;;4.55;1.70;;;18.10;51.50;;;;;;4944404;28;20514;-45
2022/05/26 05:21:35;;;;;;;5.70;1.80;;;18.10;51.40;;;;;;4946123;29;20055;-46
2022/05/26 05:24:07;;;;;;;6.85;2.13;;;18.10;51.40;;;;;;4946698;28;20070;-45
2022/05/26 05:26:40;;;;;;;6.50;1.90;;;18.10;51.50;;;;;;4947077;28;20361;-46
2022/05/26 05:29:11;;;;;;;4.38;1.90;;;18.10;51.60;;;;;;4944521;28;20089;-47
2022/05/26 05:31:43;;;;;;;5.47;1.92;;;18.20;51.70;;;;;;4944559;28;20054;-46
2022/05/26 05:34:15;;;;;;;5.60;2.38;;;18.20;52.00;;;;;;4944707;28;20059;-48
2022/05/26 05:36:43;;;;;;;7.60;2.08;;;18.20;51.90;;;;;;4944294;28;20058;-45
2022/05/26 05:39:11;;;;;;;9.05;2.60;;;18.20;51.80;;;;;;4946449;29;20059;-47
2022/05/26 05:41:38;;;;;;;5.45;2.33;;;18.30;52.00;;;;;;4946144;28;20063;-47
2022/05/26 05:44:06;;;;;;;8.45;3.10;;;18.20;51.80;;;;;;4946421;28;20066;-46
2022/05/26 05:46:53;;;;;;;8.75;2.42;;;18.30;51.80;;;;;;4946855;28;20492;-46
2022/05/26 05:49:23;;;;;;;6.07;2.70;;;18.30;51.80;;;;;;4944778;28;20199;-48
2022/05/26 05:51:51;;;;;;;6.95;2.65;;;18.30;51.80;;;;;;4945712;28;20051;-48
2022/05/26 05:54:19;;;;;;;7.38;2.28;;;18.40;52.00;;;;;;4945922;28;20055;-46
2022/05/26 05:56:47;;;;;;;6.50;2.40;;;18.40;52.00;;;;;;4945956;29;20051;-46
2022/05/26 05:59:15;;;;;;;5.35;2.30;;;18.40;51.90;;;;;;4945634;28;20055;-46
2022/05/26 06:01:43;;;;;;;6.95;2.90;;;18.40;51.80;;;;;;4945448;28;20058;-46
2022/05/26 06:04:10;;;;;;;7.07;2.38;;;18.40;51.80;;;;;;4945111;28;20066;-45
2022/05/26 06:06:41;;;;;;;6.63;2.33;;;18.40;51.80;;;;;;4944344;28;20058;-49
2022/05/26 06:09:10;;;;;;;6.40;1.88;;;18.50;51.90;;;;;;4941775;28;20066;-46
2022/05/26 06:11:38;;;;;;;5.18;1.77;;;18.50;52.00;;;;;;4943805;28;20055;-49
2022/05/26 06:14:05;;;;;;;6.53;2.53;;;18.60;52.10;;;;;;4945980;28;20066;-46
2022/05/26 06:16:33;;;;;;;5.75;2.33;;;18.60;52.10;;;;;;4943736;28;20066;-47
2022/05/26 06:19:01;;;;;;;5.90;1.67;;;18.60;52.10;;;;;;4943501;28;20059;-46
2022/05/26 06:21:29;;;;;;;3.92;1.70;;;18.60;52.00;;;;;;4942432;28;20506;-45
2022/05/26 06:23:58;;;;;;;5.53;1.30;;;18.60;52.20;;;;;;4944667;28;20510;-49
2022/05/26 06:26:26;;;;;;;9.57;1.67;;;18.70;52.50;;;;;;4941278;28;20051;-50
2022/05/26 06:31:38;;;;;;;8.45;2.35;;;18.80;52.60;;;;;;4950111;28;20051;-45
2022/05/26 06:39:37;;;;;;;14.40;1.95;;;18.90;52.30;;;;;;4950837;28;20062;-45
2022/05/26 06:42:09;;;;;;;8.70;1.85;;;18.90;52.00;;;;;;4943329;28;20047;-47
2022/05/26 06:44:40;;;;;;;4.70;1.27;;;18.90;52.10;;;;;;4943596;28;20062;-45
2022/05/26 06:47:09;;;;;;;4.80;1.20;;;19.00;52.10;;;;;;4940304;28;20412;-46
2022/05/26 06:49:38;;;;;;;5.32;1.50;;;19.00;52.20;;;;;;4941984;28;20074;-47
2022/05/26 06:52:07;;;;;;;11.38;1.55;;;19.00;52.10;;;;;;4945953;28;20066;-47
2022/05/26 06:54:38;;;;;;;5.45;1.52;;;19.10;52.60;;;;;;4943735;28;20059;-46
2022/05/26 06:57:07;;;;;;;7.32;2.17;;;19.10;51.80;;;;;;4943769;28;20059;-46
2022/05/26 06:59:35;;;;;;;5.47;1.52;;;19.10;52.00;;;;;;4944966;28;20059;-46
2022/05/26 07:02:02;;;;;;;9.18;1.92;;;19.10;51.80;;;;;;4941072;28;20051;-45
2022/05/26 07:04:30;;;;;;;5.35;1.73;;;19.20;51.80;;;;;;4941736;28;20084;-47
2022/05/26 07:06:58;;;;;;;5.38;1.90;;;19.20;51.80;;;;;;4939829;28;20423;-46
2022/05/26 07:09:26;;;;;;;3.67;1.52;;;19.20;52.00;;;;;;4933657;28;20503;-47
2022/05/26 07:11:55;;;;;;;4.20;1.52;;;19.20;51.90;;;;;;4943234;28;20051;-46
2022/05/26 07:14:23;;;;;;;6.28;1.75;;;19.30;51.80;;;;;;4943601;28;20047;-45
2022/05/26 07:16:50;;;;;;;5.57;1.50;;;19.30;52.00;;;;;;4940374;28;20388;-46
2022/05/26 07:19:19;;;;;;;4.03;1.20;;;19.40;52.10;;;;;;4941027;28;20090;-47
2022/05/26 07:21:48;;;;;;;6.50;1.90;;;19.50;52.00;;;;;;4939193;28;20066;-45
2022/05/26 07:24:18;;;;;;;9.07;1.90;;;19.50;51.80;;;;;;4940814;28;20055;-45
2022/05/26 07:26:47;;;;;;;5.72;2.10;;;19.50;51.40;;;;;;4942671;28;20389;-45
2022/05/26 07:29:18;;;;;;;8.07;2.03;;;19.60;51.30;;;;;;4956929;28;20059;-54
2022/05/26 07:31:46;;;;;;;10.43;2.47;;;19.60;51.30;;;;;;4942809;28;20051;-47
2022/05/26 07:34:13;;;;;;;8.13;2.05;;;19.60;50.90;;;;;;4941673;28;20059;-46
2022/05/26 07:42:15;;;;;;;11.85;2.45;;;19.70;50.90;;;;;;4950124;28;20062;-45
2022/05/26 07:44:46;;;;;;;4.78;1.85;;;19.70;51.00;;;;;;4943289;28;20526;-45
2022/05/26 07:47:15;;;;;;;4.85;1.88;;;19.70;51.00;;;;;;4941334;28;20051;-48
2022/05/26 07:49:45;;;;;;;5.30;1.98;;;19.70;51.20;;;;;;4941617;28;20059;-46
2022/05/26 07:52:14;;;;;;;10.15;2.47;;;19.80;51.20;;;;;;4944249;28;20423;-49
2022/05/26 07:54:42;;;;;;;6.72;2.05;;;19.80;51.90;;;;;;4943412;28;20058;-45
2022/05/26 07:57:19;;;;;;;6.78;2.03;;;19.90;51.50;;;;;;4938670;28;20067;-50
2022/05/26 07:59:48;;;;;;;6.53;1.67;;;19.80;51.20;;;;;;4936292;28;20059;-46
2022/05/26 08:02:16;;;;;;;6.68;2.15;;;19.90;51.00;;;;;;4940223;28;20054;-46
2022/05/26 08:04:44;;;;;;;8.70;2.00;;;19.80;50.90;;;;;;4940376;28;20091;-48
2022/05/26 08:07:11;;;;;;;8.48;2.33;;;19.80;50.90;;;;;;4941729;28;20055;-49
2022/05/26 08:09:40;;;;;;;6.63;2.40;;;19.80;51.00;;;;;;4940143;28;20144;-46
2022/05/26 08:12:10;;;;;;;7.07;1.90;;;19.80;51.00;;;;;;4940829;28;20043;-47
2022/05/26 08:14:38;;;;;;;6.53;2.08;;;19.70;51.30;;;;;;4941011;28;20047;-46
2022/05/26 08:17:07;;;;;;;5.63;2.00;;;19.70;51.40;;;;;;4943773;28;20523;-46
2022/05/26 08:19:35;;;;;;;17.40;6.55;;;19.80;51.50;;;;;;4944336;28;20495;-45
2022/05/26 08:22:03;;;;;;;12.65;3.53;;;19.80;51.50;;;;;;4942121;28;20417;-45
2022/05/26 08:24:30;;;;;;;9.30;3.10;;;19.90;51.70;;;;;;4944449;28;20066;-46
2022/05/26 08:26:58;;;;;;;7.60;2.72;;;20.00;51.60;;;;;;4944048;28;20583;-45
2022/05/26 08:29:25;;;;;;;10.10;2.80;;;20.00;51.60;;;;;;4944760;28;20063;-46
2022/05/26 08:31:53;;;;;;;6.88;2.30;;;20.10;51.50;;;;;;4944624;28;20051;-52
2022/05/26 08:34:22;;;;;;;9.05;2.35;;;20.10;51.00;;;;;;4943488;28;20063;-47
2022/05/26 08:36:50;;;;;;;10.02;2.85;;;20.10;50.80;;;;;;4946321;28;20632;-47
2022/05/26 08:39:18;;;;;;;5.65;2.03;;;20.20;51.00;;;;;;4944104;28;20066;-45
2022/05/26 08:41:49;;;;;;;8.88;2.22;;;20.20;51.00;;;;;;4945850;28;20451;-45
2022/05/26 08:44:29;;;;;;;10.18;2.92;;;20.30;50.90;;;;;;4945192;28;20082;-45
2022/05/26 08:47:02;;;;;;;11.60;3.38;;;20.40;50.80;;;;;;4940612;28;21582;-45
2022/05/26 08:49:37;;;;;;;7.43;2.45;;;20.40;50.80;;;;;;4944201;28;20047;-45
2022/05/26 08:52:13;;;;;;;4.25;1.77;;;20.50;50.80;;;;;;4947372;28;20047;-54
2022/05/26 08:54:45;;;;;;;7.65;2.65;;;20.60;50.50;;;;;;4945645;28;20055;-49
2022/05/26 08:57:16;;;;;;;7.72;2.42;;;20.60;50.10;;;;;;4943008;28;20055;-48
2022/05/26 08:59:45;;;;;;;7.68;2.55;;;20.70;50.20;;;;;;4943673;28;20062;-47
2022/05/26 09:02:24;;;;;;;9.75;3.25;;;20.80;49.90;;;;;;4945073;28;20062;-45
2022/05/26 09:04:55;;;;;;;5.35;2.03;;;20.80;50.10;;;;;;4943919;28;20046;-45
2022/05/26 09:13:06;;;;;;;6.88;2.60;;;20.80;49.30;;;;;;4951250;28;20058;-46
2022/05/26 09:15:37;;;;;;;9.77;1.90;;;20.80;49.40;;;;;;4944086;28;20487;-45
2022/05/26 09:18:15;;;;;;;11.30;2.22;;;20.80;49.60;;;;;;4943882;28;20066;-47
2022/05/26 09:20:46;;;;;;;6.47;2.15;;;20.80;48.80;;;;;;4942601;28;20109;-45
2022/05/26 09:23:22;;;;;;;8.05;2.50;;;20.80;48.90;;;;;;4941393;28;20059;-47
2022/05/26 09:25:53;;;;;;;10.25;3.70;;;20.80;48.70;;;;;;4945887;28;20062;-45
2022/05/26 09:28:34;;;;;;;8.88;2.42;;;20.80;48.50;;;;;;4940066;28;20047;-45
2022/05/26 09:31:18;;;;;;;10.68;2.80;;;20.90;48.40;;;;;;4957457;28;20053;-47
2022/05/26 09:34:01;;;;;;;6.72;2.15;;;21.00;48.30;;;;;;4941695;28;20066;-46
2022/05/26 09:36:32;;;;;;;7.80;2.25;;;21.00;48.20;;;;;;4938899;28;20055;-47
2022/05/26 09:39:00;;;;;;;6.32;2.05;;;21.10;48.40;;;;;;4940873;28;20062;-50
2022/05/26 09:41:27;;;;;;;4.50;1.85;;;21.10;48.30;;;;;;4942637;28;20062;-48
2022/05/26 09:43:59;;;;;;;7.75;2.42;;;21.20;47.70;;;;;;4942583;28;20538;-47
2022/05/26 09:46:28;;;;;;;14.45;2.72;;;21.20;47.40;;;;;;4942881;28;20066;-45
2022/05/26 09:49:02;;;;;;;7.72;2.58;;;21.20;47.50;;;;;;4940145;28;20051;-47
2022/05/26 09:51:42;;;;;;;9.68;2.60;;;21.30;47.30;;;;;;4940837;28;20054;-49
2022/05/26 09:54:25;;;;;;;5.25;2.08;;;21.40;46.90;;;;;;4944726;28;20518;-46
2022/05/26 09:56:53;;;;;;;7.43;2.33;;;21.40;46.90;;;;;;4944049;28;20051;-47
2022/05/26 09:59:26;;;;;;;7.72;2.00;;;21.50;47.70;;;;;;4944893;28;20055;-45
2022/05/26 10:01:59;;;;;;;8.90;2.50;;;21.50;46.90;;;;;;4942639;28;20062;-48
2022/05/26 10:04:45;;;;;;;6.32;1.67;;;21.50;46.50;;;;;;4943753;28;20432;-47
2022/05/26 10:07:19;;;;;;;5.38;2.00;;;21.60;46.60;;;;;;4943008;28;20062;-46
2022/05/26 10:09:54;;;;;;;8.57;2.20;;;21.60;46.50;;;;;;4938724;28;20077;-46
2022/05/26 10:12:28;;;;;;;8.23;1.90;;;21.60;46.60;;;;;;4944360;28;20058;-46
2022/05/26 10:15:09;;;;;;;4.20;1.55;;;21.60;46.50;;;;;;4945398;28;20055;-46
2022/05/26 10:17:54;;;;;;;6.68;2.08;;;21.60;46.50;;;;;;4943019;28;20050;-46
2022/05/26 10:20:32;;;;;;;6.28;2.40;;;21.60;47.00;;;;;;4941934;28;20463;-47
2022/05/26 10:23:14;;;;;;;9.65;2.28;;;21.60;47.40;;;;;;4942621;28;20062;-46
2022/05/26 10:25:49;;;;;;;3.55;1.33;;;21.70;47.20;;;;;;4943816;28;20389;-46
2022/05/26 10:29:09;;;;;;;5.97;1.98;;;21.70;47.00;;;;;;4943016;28;20063;-47
2022/05/26 10:31:52;;;;;;;9.32;2.20;;;21.70;45.80;;;;;;4945045;28;20063;-50
2022/05/26 10:34:37;;;;;;;6.45;1.75;;;21.80;45.90;;;;;;4941189;28;20412;-46
2022/05/26 10:37:15;;;;;;;7.00;2.00;;;21.80;46.30;;;;;;4943460;28;20059;-48
2022/05/26 10:40:02;;;;;;;6.85;2.42;;;21.70;45.80;;;;;;4941990;28;20047;-50
2022/05/26 10:42:34;;;;;;;8.57;2.28;;;21.70;45.90;;;;;;4941928;28;20078;-48
2022/05/26 10:45:12;;;;;;;7.30;1.98;;;21.60;45.30;;;;;;4942343;28;20419;-52
2022/05/26 10:47:44;;;;;;;5.18;1.45;;;21.60;46.00;;;;;;4940712;28;20094;-47
2022/05/26 10:50:20;;;;;;;8.75;2.28;;;21.60;45.70;;;;;;4941962;28;20066;-47
2022/05/26 10:52:53;;;;;;;6.25;1.80;;;21.60;45.70;;;;;;4938492;28;20047;-48
2022/05/26 10:55:30;;;;;;;7.60;1.98;;;21.60;45.10;;;;;;4939714;28;20512;-46
2022/05/26 10:58:05;;;;;;;6.60;2.05;;;21.70;45.20;;;;;;4941675;28;20055;-47
2022/05/26 11:00:33;;;;;;;;;;;21.70;46.30;;;;;;4944631;28;20055;-46
2022/05/26 11:03:11;;;;;;;5.15;1.92;;;21.80;46.10;;;;;;4942234;28;19922;-49
2022/05/26 11:05:45;;;;;;;5.57;2.25;;;22.00;45.70;;;;;;4939277;28;20101;-48
2022/05/26 11:08:32;;;;;;;6.93;1.95;;;22.00;44.50;;;;;;4938308;28;20047;-47
2022/05/26 11:11:07;;;;;;;5.93;1.92;;;22.10;44.50;;;;;;4937134;28;20051;-48
2022/05/26 11:13:49;;;;;;;6.53;1.50;;;22.20;44.50;;;;;;4943556;28;20059;-47
2022/05/26 11:19:21;;;;;;;6.65;2.00;;;22.30;43.90;;;;;;4946804;28;20415;-52
2022/05/26 11:21:50;;;;;;;5.30;1.95;;;22.30;43.20;;;;;;4943270;28;20055;-46
2022/05/26 11:24:19;;;;;;;6.97;2.40;;;22.30;42.80;;;;;;4944633;28;20051;-49
2022/05/26 11:26:53;;;;;;;11.40;2.20;;;22.20;43.90;;;;;;4944588;28;20059;-48
2022/05/26 11:29:27;;;;;;;9.20;2.30;;;22.10;44.00;;;;;;4941969;28;20059;-51
2022/05/26 11:37:57;;;;;;;5.80;2.00;;;22.00;43.70;;;;;;4940428;28;20082;-46
2022/05/26 11:40:33;;;;;;;4.97;1.98;;;21.90;43.70;;;;;;4944000;28;20051;-51
2022/05/26 11:43:07;;;;;;;4.13;1.80;;;22.00;43.50;;;;;;4943253;28;20542;-46
2022/05/26 11:45:47;;;;;;;;;;;22.00;43.90;;;;;;4944376;29;20051;-49
2022/05/26 11:48:40;;;;;;;8.45;2.03;;;22.00;44.20;;;;;;4942969;28;19926;-46
2022/05/26 11:51:28;;;;;;;4.53;1.83;;;22.10;44.30;;;;;;4943344;28;20055;-51
2022/05/26 11:53:56;;;;;;;5.97;1.73;;;22.20;44.60;;;;;;4944660;28;20071;-45
2022/05/26 11:56:46;;;;;;;8.02;2.25;;;22.20;44.60;;;;;;4944848;28;20055;-51
2022/05/26 11:59:46;;;;;;;6.53;2.00;;;22.20;45.30;;;;;;4942907;28;20059;-47
2022/05/26 12:02:29;;;;;;;7.38;2.90;;;22.20;44.60;;;;;;4942773;28;20059;-50
2022/05/26 12:04:57;;;;;;;11.07;3.05;;;22.20;45.10;;;;;;4943295;28;20446;-48
2022/05/26 12:07:38;;;;;;;6.35;1.98;;;22.30;44.10;;;;;;4943751;28;20051;-49
2022/05/26 12:10:23;;;;;;;5.95;2.00;;;22.30;43.70;;;;;;4944444;29;20067;-45
2022/05/26 12:13:09;;;;;;;6.78;1.95;;;22.40;43.50;;;;;;4943224;28;20059;-48
2022/05/26 12:16:06;;;;;;;6.70;1.92;;;22.40;42.70;;;;;;4943732;28;20058;-49
2022/05/26 12:18:39;;;;;;;9.80;2.45;;;22.50;42.70;;;;;;4943031;28;20063;-49
2022/05/26 12:21:14;;;;;;;5.13;1.75;;;22.50;42.80;;;;;;4942695;28;20055;-47
2022/05/26 12:23:42;;;;;;;10.65;2.67;;;22.50;43.40;;;;;;4942295;28;20051;-52
2022/05/26 12:26:31;;;;;;;10.52;2.17;;;22.50;42.40;;;;;;4943510;28;20059;-47
2022/05/26 12:29:32;;;;;;;6.18;2.00;;;22.50;42.90;;;;;;4939890;28;20055;-46
2022/05/26 12:32:12;;;;;;;6.75;2.28;;;22.50;42.90;;;;;;4943882;29;20059;-48
2022/05/26 12:34:52;;;;;;;5.43;2.00;;;22.50;43.40;;;;;;4942868;28;20504;-45
2022/05/26 12:37:36;;;;;;;8.77;2.30;;;22.50;43.10;;;;;;4941848;28;20492;-50
2022/05/26 12:40:27;;;;;;;7.93;1.92;;;22.40;42.40;;;;;;4943948;29;20066;-48
2022/05/26 12:43:33;;;;;;;6.00;2.22;;;22.50;42.20;;;;;;4942438;28;20070;-52
2022/05/26 12:46:11;;;;;;;5.68;2.13;;;22.50;42.40;;;;;;4943917;28;20063;-46
2022/05/26 12:49:08;;;;;;;5.40;2.13;;;22.50;42.70;;;;;;4941070;28;20061;-47
2022/05/26 12:51:37;;;;;;;10.48;2.58;;;22.50;42.90;;;;;;4943429;28;20055;-48
2022/05/26 12:54:09;;;;;;;5.65;2.00;;;22.50;42.50;;;;;;4943736;28;20047;-46
2022/05/26 12:56:47;;;;;;;5.88;2.10;;;22.50;42.40;;;;;;4943263;28;20483;-46
2022/05/26 12:59:16;;;;;;;9.05;2.70;;;22.60;42.30;;;;;;4939217;28;20066;-48
2022/05/26 13:01:48;;;;;;;9.93;2.53;;;22.60;42.40;;;;;;4941438;28;20051;-49
2022/05/26 13:04:21;;;;;;;7.45;2.13;;;22.60;42.20;;;;;;4945838;28;20051;-48
2022/05/26 13:06:52;;;;;;;6.45;2.30;;;22.60;41.40;;;;;;4944742;28;20063;-49
2022/05/26 13:09:24;;;;;;;6.97;2.88;;;22.60;41.40;;;;;;4942640;28;20488;-48
2022/05/26 13:11:56;;;;;;;6.13;1.95;;;22.60;41.70;;;;;;4943848;28;20522;-46
2022/05/26 13:14:32;;;;;;;10.38;2.25;;;22.70;42.20;;;;;;4942643;28;20047;-48
2022/05/26 13:17:01;;;;;;;5.28;1.92;;;22.70;42.20;;;;;;4943318;29;20059;-47
2022/05/26 13:19:31;;;;;;;5.00;2.25;;;22.70;41.50;;;;;;4944206;28;20062;-46
2022/05/26 13:21:59;;;;;;;4.80;2.00;;;22.80;41.10;;;;;;4943186;28;20047;-46
2022/05/26 13:24:29;;;;;;;5.22;1.95;;;22.80;40.40;;;;;;4945152;28;20047;-47
2022/05/26 13:26:59;;;;;;;6.22;2.03;;;22.80;40.90;;;;;;4943963;28;20058;-48
2022/05/26 13:29:28;;;;;;;5.07;2.28;;;22.80;41.40;;;;;;4943032;28;20423;-46
2022/05/26 13:34:47;;;;;;;6.88;2.60;;;23.00;41.30;;;;;;4948430;28;20062;-50
2022/05/26 13:37:21;;;;;;;9.80;2.65;;;23.10;40.50;;;;;;4942944;28;20056;-48
2022/05/26 13:40:09;;;;;;;7.45;2.70;;;23.00;40.40;;;;;;4945558;28;20051;-49
2022/05/26 13:42:39;;;;;;;11.88;2.95;;;23.10;41.30;;;;;;4943766;28;20055;-47
2022/05/26 13:45:12;;;;;;;7.82;2.97;;;23.20;41.20;;;;;;4941449;29;21046;-47
2022/05/26 13:47:40;;;;;;;8.20;3.42;;;23.20;41.00;;;;;;4940405;28;20051;-46
2022/05/26 13:50:13;;;;;;;9.93;3.38;;;23.30;41.70;;;;;;4939890;28;20062;-50
2022/05/26 13:52:42;;;;;;;7.75;2.85;;;23.30;41.10;;;;;;4942247;29;20055;-46
2022/05/26 13:55:20;;;;;;;5.88;3.42;;;23.40;41.20;;;;;;4943799;28;20051;-47
2022/05/26 13:57:54;;;;;;;8.15;3.17;;;23.40;41.50;;;;;;4943114;28;20067;-46
2022/05/26 14:00:28;;;;;;;8.40;2.65;;;23.50;41.50;;;;;;4943264;28;20051;-47